메인 페이지
METAR-TAF:

METAR-TAF

공항 :

나리타 국제공항

도쿄 나리타, 일본

위도: 35-46N, 경도: 140-23E, 고도: 41m

현재 날씨관측

예보는 38분 전, 10:00시(UTC)에 발표되었습니다.
북북동6kt북북서풍과 풍을 오가는
온도 5°C
습도 48%
기압 1027 hPa
시정 10km 이상
고도 3000ft 상공 구름 조금

METAR: RJAA 151000Z 03006KT 340V080 9999 FEW030 05/M05 Q1027 NOSIG RMK 1CU030 A3034

시각: 19:38 (10:38 UTC)

예보

예보는 5 시간 33분 전, 05:05시(UTC)에 발표되었습니다.
예보 대상 시간: 15일 06시부터 16일 12시까지 (UTC)
북북서5kt
시정 10km 이상
고도 3000ft 상공 구름 조금
전환 중
16일 00시부터 16일 03시까지 (UTC)
남남동10kt

TAF: RJAA 150505Z 1506/1612 34005KT 9999 FEW030 BECMG 1600/1603 16010KT

4,000개 이상의 공항 관측 자료 및 예보 (METAR 및 TAF 보고).

지도상에서 검색 가능한 기상관측소가 노란 점과 빨간 점으로 표시되어 있습니다.

기상관측소 명을 보려면 표시 위로 마우스를 이동하세요.

날씨 관측과 예보를 보려면 클릭하세요.

지도 변경 : 확대하려면 엑스 표시가 있는 녹색 버튼, 축소하려면 빼기 표시가 있는 녹색 버튼, 다음 페이지의 지도를 보려면 녹색 화살표를 클릭하세요.


METAR-TAF: